KMLI

Quad City International Airport

Moline, Illinois, USA
METAR KMLI 231452Z 10003KT 10SM SCT055 BKN100 23/17 A3018 RMK AO2 SLP216 T02280167 50006 $
Observed Flight Rules
May-23 @ 14:52 UTC (17 minutes ago) Visual Flight Rules
Wind Visibility Clouds
100° at 3 knots 10 miles
  • Scattered at 5,500' AGL
  • Broken at 10,000' AGL
Temperatures Readings
Current 23°C / 73°F
Dewpoint 17°C / 63°F
Humidity 69%
Altimeter 30.18" Hg
Pressure 1021.6 hPa
Elevation 184
METAR KMLI 231452Z 10003KT 10SM SCT055 BKN100 23/17 A3018 RMK AO2 SLP216 T02280167 50006 $
Observed Flight Rules
May-23 @ 14:52 UTC
(17 minutes ago)
VFR
Wind Visibility
100° at 3 knots 10 miles
Clouds
  • Scattered at 5,500' AGL
  • Broken at 10,000' AGL
Temperature Dewpoint
23°C / 73°F 17°C / 63°F
Humidity Altimeter Pressure
69% 30.18" Hg 1021.6 hPa